Terminal Aerodrome Forecast
Issued by NWS

Home | Current Version | Previous Version | Graphics & Text | Print | Product List | Glossary On
Versions: 1 2 3 4 5 6 7 8 9 10 11 12 13 14 15 16 17 18 19 20 21 22 23 24 25 26
000
FTUS43 KLOT 180835 AAA
TAFDPA
TAF AMD
KDPA 180835Z 1809/1906 28010KT P6SM FEW025 SCT040
     FM181500 29012G19KT P6SM SCT040
     FM190100 29006KT P6SM SCT040 OVC070 PROB30 1903/1906 5SM -SHRA=

USA.gov is the U.S. government's official web portal to all federal, state and local government web resources and services.